]idnight River — HP7399 — position and weather

sailwx.info

Track history (hours):
 
Tides and Currents Weather Stations Pressure Air Temp Water Temp Dewpoint Dewpoint Depression Visibility Wind Speed Wind Dir Waves Ship Positions

]idnight River

Last reported at 2014-Aug-19 15:31 UTC. Time now 2014-Sep-01 07:52 UTC.
Position N 18°04' W 063°10'.
Warning: this ship's position is 12 days out of date.

MMSI: 352319000.

Date/timePositionNaut miles runAvg speedWind from/ knotsBaromVisibWave heightAir tempDewpointWater temp
2014-Aug-19 15:31N 18°04' W 063°10'8 1.5
2014-Aug-19 10:26N 18°12' W 063°10'8 9.2
2014-Aug-19 09:33N 18°12' W 063°19'  
2014-Aug-14 06:14N 18°10' W 063°28'6 9.4
2014-Aug-14 05:33N 18°09' W 063°22'10 9.5
2014-Aug-14 04:33N 18°06' W 063°12'6 5.8
2014-Aug-14 03:26N 18°05' W 063°05'0 0.0
2014-Aug-14 02:33N 18°05' W 063°05'4 3.8
2014-Aug-14 01:27N 18°05' W 063°10'12 9.2
2014-Aug-14 00:11N 17°53' W 063°12'6 9.3
2014-Aug-13 23:33N 17°48' W 063°14'10 9.2
2014-Aug-13 22:27N 17°38' W 063°16'16 1.0
2014-Aug-13 06:32N 17°50' W 063°07'9 9.1
2014-Aug-13 05:33N 17°59' W 063°09'6 6.0
2014-Aug-13 04:29N 18°05' W 063°06'1 0.9
2014-Aug-13 03:33N 18°05' W 063°05'0 0.0
2014-Aug-13 02:25N 18°05' W 063°05'0 0.0
2014-Aug-13 01:32N 18°05' W 063°05'0 0.0
2014-Aug-13 00:31N 18°05' W 063°05'4 4.2
2014-Aug-12 23:31N 18°05' W 063°09'  
Track history (hours):
 
Tides and Currents Weather Stations Pressure Air Temp Water Temp Dewpoint Dewpoint Depression Visibility Wind Speed Wind Dir Waves Ship Positions

]idnight River

Last reported at 2014-Aug-19 15:31 UTC. Time now 2014-Sep-01 07:52 UTC.
Position N 18°04' W 063°10'.
Warning: this ship's position is 12 days out of date.

MMSI: 352319000.

Date/timePositionNaut miles runAvg speedWind from/ knotsBaromVisibWave heightAir tempDewpointWater temp
2014-Aug-19 15:31N 18°04' W 063°10'8 1.5
2014-Aug-19 10:26N 18°12' W 063°10'8 9.2
2014-Aug-19 09:33N 18°12' W 063°19'  
2014-Aug-14 06:14N 18°10' W 063°28'6 9.4
2014-Aug-14 05:33N 18°09' W 063°22'10 9.5
2014-Aug-14 04:33N 18°06' W 063°12'6 5.8
2014-Aug-14 03:26N 18°05' W 063°05'0 0.0
2014-Aug-14 02:33N 18°05' W 063°05'4 3.8
2014-Aug-14 01:27N 18°05' W 063°10'12 9.2
2014-Aug-14 00:11N 17°53' W 063°12'6 9.3
2014-Aug-13 23:33N 17°48' W 063°14'10 9.2
2014-Aug-13 22:27N 17°38' W 063°16'16 1.0
2014-Aug-13 06:32N 17°50' W 063°07'9 9.1
2014-Aug-13 05:33N 17°59' W 063°09'6 6.0
2014-Aug-13 04:29N 18°05' W 063°06'1 0.9
2014-Aug-13 03:33N 18°05' W 063°05'0 0.0
2014-Aug-13 02:25N 18°05' W 063°05'0 0.0
2014-Aug-13 01:32N 18°05' W 063°05'0 0.0
2014-Aug-13 00:31N 18°05' W 063°05'4 4.2
2014-Aug-12 23:31N 18°05' W 063°09'  

Dump ship's entire track history